Timonium, Maryland
Current Conditions -  °F | °C
As of 12:30 PM on Monday 26 Jan 2015 (Local Time) from KMTN Reporting Station
Light Snow Light Snow  
Wind Chill: -4°   Ceiling: 1300
Heat Index:   Visibility: 6mi
Dew Point: -1°   Wind: 8mph
Humidity: 93%   Direction: 10°N
Pressure: 29.79"   Gusts: NA
Location:  39.4211°N, 76.6266°W
Report Text: KMTN 261730Z 01007KT 6SM -SN OVC013 00/M01 A2979
Loading
Personal Weather Stations






























Interactive Weather Map New forecast layout! Learn more

10-Day Weather Forecast

Advertisements
Track Severe Weather on mobile